Chandler, AZ

7:27 AM MST on January 20, 2017 (GMT -0700)
Chandler Municipal | | Change Station
Active Advisory: Wind Advisory

Elev 1240 ft 33.27 °N, 111.81 °W | Updated 40 minutes ago

Light Rain
Light Rain
50 °F
Feels Like 50 °F
N
0
Wind Variable Wind from North

Today
High -- | Low -- °F
--% Chance of Precip.
Yesterday
High -- | Low -- °F
Precip. -- in
Pressure 29.84 in
Visibility 5.0 miles
Clouds Mostly Cloudy 4000 ft
Overcast 5000 ft
Dew Point 50 °F
Humidity 100%
Rainfall 0.00 in
Snow Depth Not available.
7:29 AM 5:47 PM
Last Quarter, 44% visible
METAR KCHD 201347Z 00000KT 5SM -RA BKN040 OVC050 10/10 A2984
Pressure 29.84 in
Visibility 5.0 miles
Clouds Mostly Cloudy 4000 ft
Overcast 5000 ft
Dew Point 50 °F
Humidity 100%
Rainfall 0.00 in
Snow Depth Not available.
7:29 AM 5:47 PM
Last Quarter, 44% visible
METAR KCHD 201347Z 00000KT 5SM -RA BKN040 OVC050 10/10 A2984

Get Your Daily Forecast Email!

Thanks for signing up!

Be on the lookout for a verification email in your inbox.

You'll start receiving the daily forecast at 8 AM.

×

10-Day Weather Forecast

Almanac

Astronomy

Jan. 20, 2017 Rise Set
Actual Time
Civil Twilight
Nautical Twilight
Astronomical Twilight
Moon
Length of Visible Light
Length of Day
Tomorrow will be .
, % of the Moon is Illuminated

Today's Extremes

State Highs State Lows

Community

WunderPhotos

Upload Photos

1,962,540 photos uploaded!

WunderBlog® & News

Nearby

Air Quality

  Air Quality AQ Index Pollutant
Not available.

Snow Depth

Station Depth Elevation

Earthquake Activity

City Distance Mag. Time & Date
Minimum magnitude displayed is 2.5.

Coastal Water Temperatures

Place Temperature

Stations

Nearby Weather Stations

Station Location Temp. Windchill Dew Point Humidity Wind Precip. Elev Updated Type
                   

Watches & Warnings

Wind Advisory
Issued: 2:09 AM MST Jan. 20, 2017 – National Weather Service

... Wind Advisory remains in effect from 8 PM this evening to 8 am
MST Saturday...

* affected area... much of Maricopa County... including the
greater Phoenix area... northwest and north-central Pinal
County... much of Yuma County... and parts of southwest La Paz
County.

* Timing... this evening through Saturday morning.

* Winds... west winds gusting 35 to 40 mph.

* Impacts... difficult travel conditions for high profile
vehicles along Interstate 8 and Interstate 10.

Precautionary/preparedness actions...

A Wind Advisory means that sustained wind speeds of between
30 and 40 mph are expected... or wind gusts of between 40 and
58 mph. Winds this strong can make driving difficult... especially
for high profile vehicles. In addition... strong winds over desert
areas could result in briefly lowered visibilities to well under
a mile at times in blowing dust or blowing sand. Use extra
caution.